Time;durP1;ratioP1;P1;durP2;ratioP2;P2;SDS_P1;SDS_P2;PMS_P1;PMS_P2;Temp;Humidity;BMP_temperature;BMP_pressure;BME280_temperature;BME280_humidity;BME280_pressure;Samples;Min_cycle;Max_cycle;Signal;HPM_P1;HPM_P2
2021/06/27 00:01:47;;;;;;;7.27;6.60;;;19.20;75.20;;;;;;10512188;28;20218;-30
2021/06/27 00:07:09;;;;;;;7.33;6.63;;;19.30;74.90;;;;;;10530031;28;20292;-29
2021/06/27 00:12:31;;;;;;;7.17;6.47;;;19.20;74.80;;;;;;10521193;28;20187;-30
2021/06/27 00:17:55;;;;;;;7.40;6.73;;;19.20;74.70;;;;;;10536174;28;20215;-28
2021/06/27 00:23:22;;;;;;;7.50;6.80;;;19.20;74.60;;;;;;10499533;28;20677;-28
2021/06/27 00:28:44;;;;;;;7.10;6.40;;;19.10;74.60;;;;;;10538352;22;20977;-32
2021/06/27 00:34:08;;;;;;;7.47;6.67;;;19.10;74.70;;;;;;10499791;28;20197;-29
2021/06/27 00:39:30;;;;;;;7.37;6.67;;;19.00;75.40;;;;;;10460509;28;20204;-31
2021/06/27 00:44:52;;;;;;;7.53;6.83;;;18.90;75.50;;;;;;10479498;28;20223;-29
2021/06/27 00:50:19;;;;;;;8.37;7.37;;;18.80;75.70;;;;;;10485025;28;20200;-29
2021/06/27 00:55:42;;;;;;;7.10;6.40;;;18.80;76.20;;;;;;10463855;28;20572;-30
2021/06/27 01:01:05;;;;;;;6.97;6.30;;;18.90;75.50;;;;;;10466134;28;20217;-35
2021/06/27 01:06:29;;;;;;;9.20;6.87;;;18.70;76.30;;;;;;10457640;28;20224;-31
2021/06/27 01:11:51;;;;;;;9.63;7.00;;;18.70;76.50;;;;;;10458003;28;20185;-31
2021/06/27 01:17:13;;;;;;;8.50;6.77;;;18.70;76.20;;;;;;10450899;28;20216;-30
2021/06/27 01:22:37;;;;;;;7.80;7.00;;;18.60;76.50;;;;;;10482633;28;20216;-30
2021/06/27 01:28:00;;;;;;;7.63;6.83;;;18.70;76.20;;;;;;10462597;28;20233;-31
2021/06/27 01:33:23;;;;;;;7.00;6.37;;;18.60;76.30;;;;;;10464161;28;20208;-32
2021/06/27 01:38:46;;;;;;;8.60;6.70;;;18.60;76.30;;;;;;10488042;28;20223;-29
2021/06/27 01:44:08;;;;;;;9.23;7.13;;;18.40;76.90;;;;;;10497088;28;20227;-27
2021/06/27 01:49:30;;;;;;;7.37;6.67;;;18.30;77.60;;;;;;10467059;28;20571;-32
2021/06/27 01:54:54;;;;;;;8.33;7.47;;;18.30;77.30;;;;;;10495258;28;20575;-29
2021/06/27 02:00:17;;;;;;;14.13;7.90;;;18.20;77.70;;;;;;10494122;28;20567;-30
2021/06/27 02:05:39;;;;;;;8.63;7.13;;;18.20;77.70;;;;;;10476176;28;20238;-34
2021/06/27 02:11:03;;;;;;;7.60;6.90;;;18.20;77.70;;;;;;10487258;28;20185;-28
2021/06/27 02:16:26;;;;;;;10.50;7.60;;;18.20;78.20;;;;;;10460271;28;20212;-32
2021/06/27 02:21:48;;;;;;;9.13;7.00;;;18.00;78.50;;;;;;10460831;28;20588;-30
2021/06/27 02:27:12;;;;;;;8.63;7.63;;;18.00;78.80;;;;;;10479295;28;20251;-32
2021/06/27 02:32:34;;;;;;;7.77;6.80;;;18.00;78.60;;;;;;10472540;28;20192;-33
2021/06/27 02:37:56;;;;;;;7.90;7.10;;;18.00;78.50;;;;;;10456196;28;20228;-32
2021/06/27 02:43:20;;;;;;;8.50;7.60;;;18.00;78.60;;;;;;10485074;28;20224;-31
2021/06/27 02:48:42;;;;;;;8.13;7.33;;;18.00;78.60;;;;;;10459274;28;20684;-32
2021/06/27 02:54:05;;;;;;;8.30;7.23;;;17.90;78.50;;;;;;10490361;28;20223;-30
2021/06/27 02:59:28;;;;;;;7.80;7.00;;;17.80;78.80;;;;;;10494605;28;20196;-34
2021/06/27 03:04:50;;;;;;;7.80;7.00;;;17.80;78.90;;;;;;10471541;28;20220;-30
2021/06/27 03:10:14;;;;;;;7.97;7.17;;;17.80;79.00;;;;;;10484803;28;20207;-31
2021/06/27 03:15:37;;;;;;;8.60;7.53;;;17.70;79.50;;;;;;10468976;28;20216;-30
2021/06/27 03:20:59;;;;;;;9.93;7.70;;;17.70;79.50;;;;;;10480388;28;20193;-32
2021/06/27 03:26:21;;;;;;;8.73;7.93;;;17.70;79.30;;;;;;10481045;28;20220;-30
2021/06/27 03:31:45;;;;;;;8.63;7.73;;;17.70;79.20;;;;;;10452372;28;20193;-32
2021/06/27 03:37:07;;;;;;;7.90;7.13;;;17.70;79.20;;;;;;10477276;28;20725;-29
2021/06/27 03:42:29;;;;;;;8.70;7.80;;;17.70;79.30;;;;;;10484342;28;20231;-32
2021/06/27 03:47:53;;;;;;;8.60;7.53;;;17.60;79.50;;;;;;10482497;28;20338;-33
2021/06/27 03:53:15;;;;;;;8.73;7.83;;;17.70;78.90;;;;;;10490947;28;20199;-30
2021/06/27 03:58:37;;;;;;;9.17;7.77;;;17.70;79.00;;;;;;10490644;28;20230;-33
2021/06/27 04:04:02;;;;;;;8.93;8.03;;;17.80;79.30;;;;;;10458332;28;20213;-31
2021/06/27 04:09:24;;;;;;;9.80;8.80;;;17.90;79.40;;;;;;10489505;28;20199;-34
2021/06/27 04:14:46;;;;;;;9.40;8.40;;;17.90;79.10;;;;;;10491279;28;20219;-29
2021/06/27 04:20:11;;;;;;;9.43;8.50;;;17.90;78.70;;;;;;10479597;28;20204;-33
2021/06/27 04:25:35;;;;;;;9.90;8.90;;;18.00;78.30;;;;;;10480966;28;20221;-31
2021/06/27 04:30:57;;;;;;;10.50;9.40;;;18.00;78.20;;;;;;10492434;28;20200;-34
2021/06/27 04:36:21;;;;;;;9.83;8.83;;;18.00;78.10;;;;;;10487921;28;20690;-29
2021/06/27 04:41:44;;;;;;;9.63;8.73;;;18.00;78.00;;;;;;10451301;28;20220;-34
2021/06/27 04:47:08;;;;;;;10.03;8.93;;;18.10;78.00;;;;;;10451898;28;20212;-29
2021/06/27 04:52:32;;;;;;;11.90;8.93;;;18.20;77.60;;;;;;10451818;28;20573;-31
2021/06/27 04:57:54;;;;;;;9.67;8.70;;;18.30;76.90;;;;;;10471795;28;20228;-32
2021/06/27 05:03:16;;;;;;;8.83;7.93;;;18.30;76.80;;;;;;10459169;28;20224;-29
2021/06/27 05:08:40;;;;;;;10.20;8.93;;;18.40;77.40;;;;;;10484193;28;20216;-34
2021/06/27 05:14:02;;;;;;;9.87;8.87;;;18.50;76.70;;;;;;10479959;28;20191;-29
2021/06/27 05:19:24;;;;;;;11.00;9.37;;;18.50;76.60;;;;;;10458008;28;20193;-31
2021/06/27 05:24:47;;;;;;;10.30;9.30;;;18.60;76.30;;;;;;10462686;28;20243;-32
2021/06/27 05:30:11;;;;;;;10.37;9.23;;;18.70;76.40;;;;;;10484101;28;20192;-33
2021/06/27 05:35:33;;;;;;;10.83;9.73;;;18.70;76.10;;;;;;10457660;28;20205;-29
2021/06/27 05:40:56;;;;;;;11.60;9.30;;;18.70;75.90;;;;;;10459085;28;20272;-33
2021/06/27 05:46:19;;;;;;;9.53;8.57;;;18.80;75.70;;;;;;10480242;28;20726;-30
2021/06/27 05:51:41;;;;;;;9.47;8.47;;;18.90;75.60;;;;;;10475671;28;20196;-32
2021/06/27 05:57:05;;;;;;;10.00;8.23;;;18.90;76.00;;;;;;10459819;28;20719;-33
2021/06/27 06:02:27;;;;;;;9.27;8.20;;;19.00;75.70;;;;;;10457833;28;20223;-28
2021/06/27 06:07:51;;;;;;;8.50;7.60;;;19.10;75.30;;;;;;10455590;28;20239;-30
2021/06/27 06:13:14;;;;;;;9.37;7.57;;;19.10;74.80;;;;;;10456438;28;20189;-33
2021/06/27 06:18:40;;;;;;;8.33;6.63;;;19.20;74.10;;;;;;10482198;28;20205;-32
2021/06/27 06:24:02;;;;;;;7.40;6.60;;;19.30;74.20;;;;;;10492999;28;20583;-28
2021/06/27 06:29:25;;;;;;;7.53;6.70;;;19.30;74.10;;;;;;10461718;22;20739;-32
2021/06/27 06:34:47;;;;;;;7.47;6.63;;;19.30;74.20;;;;;;10437227;28;20185;-31
2021/06/27 06:40:11;;;;;;;6.80;6.07;;;19.40;74.20;;;;;;10446995;28;20200;-32
2021/06/27 06:45:35;;;;;;;7.13;6.43;;;19.40;74.00;;;;;;10447372;28;20605;-32
2021/06/27 06:50:57;;;;;;;7.40;6.43;;;19.40;74.00;;;;;;10425900;28;20197;-30
2021/06/27 06:56:20;;;;;;;6.47;5.80;;;19.40;74.60;;;;;;10446118;28;20212;-30
2021/06/27 07:01:44;;;;;;;8.47;6.00;;;19.50;74.60;;;;;;10415430;28;20287;-28
2021/06/27 07:07:06;;;;;;;6.60;6.00;;;19.50;74.80;;;;;;10425353;28;20213;-29
2021/06/27 07:12:28;;;;;;;5.50;4.97;;;19.50;74.50;;;;;;10410587;28;20193;-30
2021/06/27 07:17:51;;;;;;;5.17;4.67;;;19.50;74.50;;;;;;10419113;28;20220;-31
2021/06/27 07:23:13;;;;;;;5.40;4.90;;;19.50;74.50;;;;;;10442416;28;20591;-30
2021/06/27 07:28:35;;;;;;;5.60;5.10;;;19.50;74.40;;;;;;10451645;28;20708;-31
2021/06/27 07:34:00;;;;;;;5.77;5.10;;;19.50;74.20;;;;;;10453197;28;20568;-31
2021/06/27 07:39:22;;;;;;;7.10;4.73;;;19.60;74.20;;;;;;10430181;28;20741;-32
2021/06/27 07:44:44;;;;;;;4.83;4.30;;;19.60;74.30;;;;;;10413731;28;20213;-30
2021/06/27 07:50:08;;;;;;;4.50;4.10;;;19.70;74.00;;;;;;10452248;28;20687;-30
2021/06/27 07:55:30;;;;;;;4.33;3.93;;;19.70;73.90;;;;;;10451272;28;20694;-31
2021/06/27 08:00:52;;;;;;;4.70;4.20;;;19.70;73.50;;;;;;10421758;28;20208;-32
2021/06/27 08:06:16;;;;;;;4.20;3.80;;;19.70;73.40;;;;;;10417602;28;20224;-31
2021/06/27 08:11:38;;;;;;;4.13;3.77;;;19.70;73.30;;;;;;10443833;28;20568;-31
2021/06/27 08:17:00;;;;;;;4.00;3.60;;;19.70;73.10;;;;;;10425170;28;20216;-32
2021/06/27 08:22:23;;;;;;;4.50;3.53;;;19.70;73.00;;;;;;10427457;28;20277;-32
2021/06/27 08:27:47;;;;;;;3.70;3.37;;;19.70;73.30;;;;;;10439279;28;20220;-31
2021/06/27 08:33:09;;;;;;;3.77;3.40;;;19.70;73.10;;;;;;10446068;28;20185;-31
2021/06/27 08:38:33;;;;;;;3.77;3.47;;;19.80;73.30;;;;;;10418084;28;20217;-32
2021/06/27 08:43:57;;;;;;;3.77;3.40;;;19.80;73.30;;;;;;10426548;28;20312;-30
2021/06/27 08:49:21;;;;;;;4.00;3.60;;;19.80;73.80;;;;;;10440534;28;20209;-31
2021/06/27 08:54:45;;;;;;;4.10;3.20;;;19.80;73.20;;;;;;10424834;28;20202;-31
2021/06/27 09:00:09;;;;;;;3.63;3.33;;;19.80;73.20;;;;;;10456253;28;20193;-31
2021/06/27 09:05:31;;;;;;;3.73;3.23;;;19.80;73.00;;;;;;10457941;28;20223;-31
2021/06/27 09:10:55;;;;;;;4.03;3.63;;;19.80;72.70;;;;;;10459040;28;20668;-31
2021/06/27 09:16:23;;;;;;;4.00;3.60;;;19.80;72.90;;;;;;10435638;28;20225;-33
2021/06/27 09:22:14;;;;;;;4.27;3.87;;;19.90;72.70;;;;;;10436249;28;20189;-31
2021/06/27 09:27:37;;;;;;;4.33;3.93;;;19.90;72.80;;;;;;10456083;28;20224;-30
2021/06/27 09:33:03;;;;;;;3.87;3.40;;;19.90;72.70;;;;;;10457700;28;20196;-31
2021/06/27 09:38:31;;;;;;;5.47;4.03;;;19.90;72.60;;;;;;10457017;28;20228;-31
2021/06/27 09:43:56;;;;;;;4.30;3.90;;;19.90;72.90;;;;;;10455759;28;20680;-30
2021/06/27 09:49:20;;;;;;;5.47;4.00;;;19.90;72.90;;;;;;10440153;28;20225;-30
2021/06/27 09:54:44;;;;;;;3.80;3.47;;;19.90;72.60;;;;;;10427987;28;20188;-30
2021/06/27 10:00:32;;;;;;;4.37;3.97;;;19.90;72.50;;;;;;10455979;28;20191;-31
2021/06/27 10:06:05;;;;;;;4.73;4.23;;;19.90;72.40;;;;;;10455986;28;20267;-34
2021/06/27 10:11:27;;;;;;;4.17;3.77;;;19.90;72.90;;;;;;10455568;28;20276;-32
2021/06/27 10:16:52;;;;;;;3.73;3.43;;;19.90;72.80;;;;;;10455788;28;20217;-31
2021/06/27 10:22:15;;;;;;;5.13;3.50;;;19.90;73.10;;;;;;10455094;28;20572;-33
2021/06/27 10:27:38;;;;;;;4.57;4.13;;;19.90;72.80;;;;;;10455017;28;20715;-30
2021/06/27 10:33:02;;;;;;;4.73;3.67;;;19.90;72.80;;;;;;10455459;28;20197;-31
2021/06/27 10:38:28;;;;;;;4.17;3.80;;;19.90;72.50;;;;;;10454768;28;20614;-31
2021/06/27 10:44:02;;;;;;;3.97;3.67;;;19.90;73.00;;;;;;10455357;28;20209;-31
2021/06/27 10:49:54;;;;;;;3.63;3.33;;;19.90;73.10;;;;;;10441217;28;20705;-31
2021/06/27 10:55:19;;;;;;;3.90;3.60;;;19.90;73.30;;;;;;10468893;28;20688;-31
2021/06/27 11:01:08;;;;;;;4.27;3.87;;;19.90;72.90;;;;;;10457389;28;20716;-30
2021/06/27 11:06:41;;;;;;;4.77;4.30;;;19.90;72.60;;;;;;10447598;28;20711;-32
2021/06/27 11:12:05;;;;;;;3.80;3.50;;;19.80;72.70;;;;;;10452717;28;20193;-30
2021/06/27 11:17:50;;;;;;;3.90;3.60;;;19.80;72.90;;;;;;10456288;28;20334;-32
2021/06/27 11:23:14;;;;;;;3.90;3.60;;;19.80;73.00;;;;;;10451805;28;20209;-31
2021/06/27 11:28:36;;;;;;;4.00;3.60;;;19.90;73.10;;;;;;10451761;28;20592;-32
2021/06/27 11:34:23;;;;;;;4.33;3.63;;;19.80;72.50;;;;;;10452915;28;20189;-31
2021/06/27 11:39:48;;;;;;;3.97;3.37;;;19.90;73.20;;;;;;10420601;28;20693;-30
2021/06/27 11:45:52;;;;;;;3.50;3.20;;;19.90;73.60;;;;;;10451718;28;20228;-30
2021/06/27 11:51:14;;;;;;;3.77;3.47;;;19.90;72.30;;;;;;10436926;28;20213;-31
2021/06/27 11:57:01;;;;;;;3.57;3.27;;;19.90;72.50;;;;;;10427452;28;20218;-31
2021/06/27 12:02:28;;;;;;;3.30;3.00;;;19.90;72.80;;;;;;10422286;28;20189;-30
2021/06/27 12:07:51;;;;;;;3.40;3.10;;;19.90;72.70;;;;;;10416955;28;20216;-32
2021/06/27 12:13:14;;;;;;;3.80;3.40;;;19.90;73.20;;;;;;10451649;28;20193;-31
2021/06/27 12:18:37;;;;;;;3.50;3.20;;;19.90;73.20;;;;;;10450512;28;20209;-30
2021/06/27 12:23:59;;;;;;;3.30;3.10;;;19.90;73.30;;;;;;10434118;28;20222;-32
2021/06/27 12:29:23;;;;;;;4.63;3.93;;;19.90;73.10;;;;;;10496102;22;20236;-28
2021/06/27 12:34:45;;;;;;;3.50;3.20;;;19.90;73.40;;;;;;10491379;28;20189;-29
2021/06/27 12:40:09;;;;;;;3.60;3.30;;;19.90;73.30;;;;;;10450611;28;20223;-29
2021/06/27 12:45:34;;;;;;;3.30;3.00;;;19.90;73.30;;;;;;10454386;28;20228;-28
2021/06/27 12:50:56;;;;;;;3.83;3.53;;;19.90;72.90;;;;;;10451147;28;20197;-29
2021/06/27 12:56:18;;;;;;;3.70;3.40;;;19.90;73.40;;;;;;10475600;28;20688;-28
2021/06/27 13:02:02;;;;;;;3.00;2.80;;;19.90;72.90;;;;;;10453834;28;20668;-28
2021/06/27 13:07:28;;;;;;;3.53;3.20;;;19.90;73.10;;;;;;10450407;28;20221;-30
2021/06/27 13:12:58;;;;;;;3.23;2.93;;;19.90;73.60;;;;;;10452697;28;20207;-28
2021/06/27 13:18:24;;;;;;;3.50;3.20;;;19.90;73.20;;;;;;10422131;28;20299;-28
2021/06/27 13:23:46;;;;;;;3.23;2.97;;;20.00;73.10;;;;;;10466102;28;20212;-28
2021/06/27 13:29:20;;;;;;;3.50;3.20;;;19.90;73.70;;;;;;10503643;28;20231;-28
2021/06/27 13:34:43;;;;;;;3.67;3.30;;;19.90;73.40;;;;;;10500362;28;20188;-28
2021/06/27 13:40:06;;;;;;;3.47;3.17;;;20.00;72.60;;;;;;10510957;28;20220;-28
2021/06/27 13:45:29;;;;;;;3.03;2.83;;;20.00;72.90;;;;;;10516913;28;20218;-28
2021/06/27 13:50:54;;;;;;;3.83;2.63;;;20.00;73.00;;;;;;10513519;28;20204;-28
2021/06/27 13:56:16;;;;;;;3.40;3.10;;;20.00;72.60;;;;;;10518876;28;20217;-28
2021/06/27 14:01:42;;;;;;;3.50;3.20;;;20.00;73.00;;;;;;10516678;28;20626;-28
2021/06/27 14:07:05;;;;;;;3.83;3.50;;;20.00;72.70;;;;;;10512410;28;20647;-27
2021/06/27 14:12:27;;;;;;;3.80;3.40;;;20.00;73.10;;;;;;10514205;28;20191;-29
2021/06/27 14:17:53;;;;;;;4.20;3.80;;;20.00;73.00;;;;;;10513777;28;20233;-29
2021/06/27 14:23:17;;;;;;;3.50;3.20;;;20.00;73.20;;;;;;10514873;28;20255;-29
2021/06/27 14:28:39;;;;;;;3.40;3.10;;;20.00;73.50;;;;;;10504570;28;20242;-28
2021/06/27 14:34:01;;;;;;;4.27;3.83;;;20.00;74.00;;;;;;10497835;28;20199;-28
2021/06/27 14:39:26;;;;;;;3.90;3.60;;;20.00;73.50;;;;;;10492955;28;20220;-27
2021/06/27 14:44:48;;;;;;;4.00;3.70;;;20.00;74.10;;;;;;10493309;28;20231;-29
2021/06/27 14:50:11;;;;;;;4.23;3.87;;;20.00;73.90;;;;;;10493357;28;20750;-29
2021/06/27 14:55:35;;;;;;;4.50;4.10;;;20.00;73.50;;;;;;10491535;28;20254;-29
2021/06/27 15:00:59;;;;;;;8.10;4.93;;;20.00;73.80;;;;;;10490129;28;20510;-29
2021/06/27 15:06:21;;;;;;;9.33;5.80;;;20.00;73.50;;;;;;10492290;28;20220;-28
2021/06/27 15:11:44;;;;;;;11.27;6.00;;;20.00;73.90;;;;;;10487255;28;20199;-28
2021/06/27 15:17:07;;;;;;;9.43;5.83;;;20.00;73.90;;;;;;10492219;28;20224;-28
2021/06/27 15:22:29;;;;;;;8.97;5.43;;;19.90;74.00;;;;;;10495759;28;20563;-28
2021/06/27 15:27:52;;;;;;;10.93;5.80;;;20.00;74.00;;;;;;10491497;28;20228;-29
2021/06/27 15:33:16;;;;;;;7.53;5.03;;;20.00;74.10;;;;;;10479396;28;20200;-28
2021/06/27 15:38:38;;;;;;;7.03;4.50;;;20.00;74.00;;;;;;10508414;28;20583;-28
2021/06/27 15:44:01;;;;;;;5.53;3.97;;;20.10;74.70;;;;;;10511852;28;20579;-29
2021/06/27 15:49:23;;;;;;;4.60;4.00;;;20.10;74.00;;;;;;10513826;28;20213;-28
2021/06/27 15:54:45;;;;;;;4.47;4.07;;;20.10;74.30;;;;;;10511424;28;20195;-28
2021/06/27 16:00:10;;;;;;;3.70;3.33;;;20.10;74.40;;;;;;10509655;28;20581;-28
2021/06/27 16:05:32;;;;;;;4.27;3.73;;;20.10;74.40;;;;;;10510813;28;22003;-28
2021/06/27 16:10:54;;;;;;;4.40;4.00;;;20.10;74.70;;;;;;10510504;28;20200;-28
2021/06/27 16:16:19;;;;;;;3.83;3.47;;;20.10;74.80;;;;;;10509656;28;20209;-28
2021/06/27 16:21:42;;;;;;;4.60;3.63;;;20.00;74.70;;;;;;10509812;28;20196;-27
2021/06/27 16:27:06;;;;;;;5.40;3.63;;;20.00;74.60;;;;;;10518960;28;20218;-29
2021/06/27 16:32:29;;;;;;;8.70;4.50;;;20.00;75.00;;;;;;10533506;28;20202;-28
2021/06/27 16:37:51;;;;;;;7.90;4.23;;;20.00;75.30;;;;;;10511831;28;20778;-29
2021/06/27 16:43:14;;;;;;;9.27;4.43;;;20.00;75.20;;;;;;10498445;28;20196;-28
2021/06/27 16:48:37;;;;;;;6.83;4.50;;;20.00;75.50;;;;;;10476895;28;20703;-28
2021/06/27 16:53:59;;;;;;;7.20;4.83;;;20.00;75.60;;;;;;10490907;28;20193;-28
2021/06/27 16:59:21;;;;;;;13.83;4.83;;;20.00;75.60;;;;;;10499917;28;20220;-28
2021/06/27 17:04:45;;;;;;;5.87;4.10;;;20.00;76.10;;;;;;10500144;28;20204;-28
2021/06/27 17:10:09;;;;;;;5.93;4.10;;;20.00;76.00;;;;;;10478904;28;20216;-29
2021/06/27 17:15:32;;;;;;;5.50;4.37;;;20.00;76.00;;;;;;10511534;28;20189;-28
2021/06/27 17:20:57;;;;;;;5.10;4.07;;;20.00;76.20;;;;;;10491349;28;20319;-28
2021/06/27 17:26:19;;;;;;;4.83;3.90;;;20.00;76.20;;;;;;10505816;28;20229;-28
2021/06/27 17:31:41;;;;;;;6.07;4.20;;;20.00;76.40;;;;;;10514739;28;20571;-27
2021/06/27 17:37:07;;;;;;;5.33;3.93;;;20.00;76.40;;;;;;10498539;28;20224;-28
2021/06/27 17:42:29;;;;;;;4.90;3.87;;;20.00;76.60;;;;;;10464106;28;20565;-28
2021/06/27 17:47:51;;;;;;;4.80;4.30;;;20.00;76.70;;;;;;10498270;28;20311;-29
2021/06/27 17:53:16;;;;;;;5.20;4.07;;;20.00;76.80;;;;;;10504215;28;20208;-29
2021/06/27 17:58:38;;;;;;;4.70;4.20;;;20.00;76.80;;;;;;10457909;28;20216;-28
2021/06/27 18:04:00;;;;;;;5.20;4.33;;;20.00;77.00;;;;;;10481557;28;20196;-29
2021/06/27 18:09:23;;;;;;;4.67;3.90;;;20.00;77.30;;;;;;10503274;28;20221;-28
2021/06/27 18:14:45;;;;;;;5.53;3.97;;;20.00;77.50;;;;;;10492022;28;20575;-28
2021/06/27 18:20:09;;;;;;;5.33;4.80;;;20.00;77.60;;;;;;10489567;28;20216;-28
2021/06/27 18:25:43;;;;;;;5.70;4.23;;;20.00;77.50;;;;;;10494622;22;20782;-75
2021/06/27 18:31:07;;;;;;;4.77;4.33;;;20.00;77.50;;;;;;10403874;28;20208;-29
2021/06/27 18:36:29;;;;;;;4.70;4.20;;;20.00;77.50;;;;;;10366558;28;20899;-29
2021/06/27 18:41:52;;;;;;;6.23;4.40;;;20.00;77.60;;;;;;10367395;28;20203;-30
2021/06/27 18:47:15;;;;;;;5.27;4.47;;;20.00;77.60;;;;;;10364497;28;20227;-30
2021/06/27 18:52:39;;;;;;;5.40;4.20;;;20.00;77.50;;;;;;10361931;28;20743;-31
2021/06/27 18:58:01;;;;;;;4.53;4.13;;;20.00;77.60;;;;;;10365921;28;20589;-30
2021/06/27 19:03:25;;;;;;;7.53;5.05;;;20.00;77.80;;;;;;10342567;28;20470;-31
2021/06/27 19:08:47;;;;;;;4.47;4.07;;;20.30;76.80;;;;;;10353175;28;20229;-31
2021/06/27 19:14:09;;;;;;;4.53;4.13;;;20.10;77.50;;;;;;10368228;28;20195;-31
2021/06/27 19:19:32;;;;;;;4.57;4.17;;;20.10;77.70;;;;;;10363950;28;20218;-30
2021/06/27 19:24:55;;;;;;;5.00;4.60;;;20.00;78.00;;;;;;10366729;28;20222;-30
2021/06/27 19:30:18;;;;;;;5.30;4.80;;;20.10;78.20;;;;;;10357339;28;20235;-30
2021/06/27 19:35:42;;;;;;;8.20;4.43;;;20.00;78.20;;;;;;10329067;28;20179;-31
2021/06/27 19:41:05;;;;;;;5.80;4.63;;;20.00;78.30;;;;;;10331079;28;20554;-29
2021/06/27 19:46:27;;;;;;;5.57;4.93;;;20.00;78.50;;;;;;10341944;28;20225;-30
2021/06/27 19:51:51;;;;;;;6.13;5.10;;;20.00;78.40;;;;;;10371000;28;20194;-30
2021/06/27 19:57:15;;;;;;;5.13;4.67;;;20.10;78.50;;;;;;10360360;28;20206;-31
2021/06/27 20:02:37;;;;;;;5.17;4.67;;;20.00;78.60;;;;;;10365668;28;20194;-31
2021/06/27 20:08:00;;;;;;;5.67;4.93;;;20.10;78.80;;;;;;10369925;28;20586;-30
2021/06/27 20:13:22;;;;;;;6.73;5.17;;;20.00;78.70;;;;;;10368692;28;20205;-30
2021/06/27 20:18:45;;;;;;;4.90;4.40;;;20.00;79.00;;;;;;10369017;28;20228;-30
2021/06/27 20:24:08;;;;;;;5.27;4.77;;;20.00;79.10;;;;;;10369241;28;20198;-30
2021/06/27 20:29:31;;;;;;;5.67;5.13;;;20.00;79.20;;;;;;10392781;28;20225;-31
2021/06/27 20:34:53;;;;;;;6.70;5.13;;;20.00;79.90;;;;;;10397637;28;20194;-31
2021/06/27 20:40:17;;;;;;;6.70;6.10;;;20.00;79.20;;;;;;10399510;28;20577;-29
2021/06/27 20:45:39;;;;;;;5.80;4.87;;;20.00;79.10;;;;;;10356120;28;20712;-28
2021/06/27 20:51:01;;;;;;;5.80;5.30;;;20.00;79.20;;;;;;10341833;28;20191;-30
2021/06/27 20:56:26;;;;;;;5.63;5.13;;;20.00;79.40;;;;;;10372367;28;20222;-29
2021/06/27 21:01:48;;;;;;;5.50;4.93;;;20.00;79.70;;;;;;10382895;28;20570;-29
2021/06/27 21:07:10;;;;;;;5.87;5.37;;;20.00;79.60;;;;;;10381512;28;20214;-31
2021/06/27 21:12:34;;;;;;;5.83;5.33;;;20.00;79.80;;;;;;10382526;28;20378;-29
2021/06/27 21:17:57;;;;;;;5.80;5.03;;;20.00;79.70;;;;;;10370200;28;20581;-30
2021/06/27 21:23:19;;;;;;;6.40;5.80;;;20.10;80.00;;;;;;10381800;28;20194;-29
2021/06/27 21:28:42;;;;;;;6.47;5.87;;;20.10;79.90;;;;;;10381249;28;20717;-29
2021/06/27 21:34:04;;;;;;;6.60;5.90;;;20.10;80.20;;;;;;10330587;28;20706;-30
2021/06/27 21:39:27;;;;;;;7.90;6.40;;;20.10;79.90;;;;;;10320599;28;20219;-30
2021/06/27 21:44:50;;;;;;;6.97;6.30;;;20.10;80.20;;;;;;10295611;28;20698;-30
2021/06/27 21:50:16;;;;;;;6.93;5.93;;;20.10;80.00;;;;;;10295504;28;20215;-29
2021/06/27 21:55:39;;;;;;;6.67;6.13;;;20.10;80.10;;;;;;10355729;28;20203;-31
2021/06/27 22:01:03;;;;;;;7.13;6.40;;;20.10;80.00;;;;;;10361856;28;20188;-30
2021/06/27 22:06:25;;;;;;;6.10;5.60;;;20.10;79.70;;;;;;10358994;28;20225;-31
2021/06/27 22:11:48;;;;;;;6.03;5.50;;;20.10;79.40;;;;;;10374700;28;20198;-30
2021/06/27 22:17:11;;;;;;;6.23;5.20;;;20.10;79.60;;;;;;10358374;28;20215;-30
2021/06/27 22:22:34;;;;;;;6.00;5.50;;;20.10;79.70;;;;;;10343849;28;20585;-29
2021/06/27 22:27:56;;;;;;;7.80;5.67;;;20.10;80.30;;;;;;10373972;28;20223;-32
2021/06/27 22:33:20;;;;;;;6.07;5.53;;;20.00;80.40;;;;;;10334489;28;20200;-32
2021/06/27 22:38:42;;;;;;;6.83;6.13;;;20.00;80.50;;;;;;10350508;28;20225;-31
2021/06/27 22:44:05;;;;;;;6.17;5.57;;;20.00;80.80;;;;;;10373571;28;20201;-30
2021/06/27 22:49:29;;;;;;;6.23;5.63;;;19.90;81.30;;;;;;10332342;28;20250;-30
2021/06/27 22:54:51;;;;;;;6.13;5.50;;;19.90;81.80;;;;;;10332587;28;20218;-31
2021/06/27 23:00:16;;;;;;;6.07;5.53;;;19.80;81.60;;;;;;10331948;28;20218;-31
2021/06/27 23:05:40;;;;;;;6.20;5.60;;;19.80;81.30;;;;;;10291925;28;20216;-30
2021/06/27 23:11:02;;;;;;;7.90;5.70;;;19.80;81.10;;;;;;10291194;28;20204;-29
2021/06/27 23:16:24;;;;;;;6.90;5.83;;;19.80;81.20;;;;;;10291497;28;20292;-31
2021/06/27 23:21:48;;;;;;;6.57;5.97;;;19.70;80.80;;;;;;10334459;28;20198;-31
2021/06/27 23:27:10;;;;;;;6.80;6.10;;;19.80;80.70;;;;;;10356949;28;20234;-31
2021/06/27 23:32:32;;;;;;;6.50;5.90;;;19.70;80.60;;;;;;10359444;28;20202;-28
2021/06/27 23:37:56;;;;;;;6.07;5.47;;;19.60;80.90;;;;;;10356308;28;20219;-30
2021/06/27 23:43:18;;;;;;;7.00;5.60;;;19.60;81.10;;;;;;10341771;28;20202;-29
2021/06/27 23:48:40;;;;;;;5.80;5.27;;;19.60;80.90;;;;;;10370190;28;20741;-31
2021/06/27 23:54:04;;;;;;;6.50;5.80;;;19.50;80.90;;;;;;10370199;28;20678;-28
2021/06/27 23:59:26;;;;;;;6.30;5.70;;;19.50;81.10;;;;;;10361868;28;20213;-32
